Rhuddlan, United Kingdom
Current Conditions -  °F | °C
As of 8:20 AM on Friday 24 Oct 2014 (Local Time) from EGNR Reporting Station
Moderate Rain Moderate Rain  
Wind Chill: 54°   Ceiling: 1000
Heat Index: 54°   Visibility: 1.2mi
Dew Point: 54°   Wind: 1mph
Humidity: 100%   Direction: NA
Pressure: 29.88"   Gusts: NA
Location:  53.28°N, 3.47°W
Report Text: EGNR 240720Z VRB01KT 2000 RA OVC010 12/12 Q1012
Loading
Personal Weather Stations






























Interactive Weather Map New forecast layout! Learn more

10-Day Weather Forecast

Advertisements
Track Severe Weather on mobile